sensor_id;sensor_type;location;lat;lon;timestamp;P1;durP1;ratioP1;P2;durP2;ratioP2
39018;SDS011;24786;51.984;5.872;2022-07-29T00:00:28;1.30;;;1.20;;
39018;SDS011;24786;51.984;5.872;2022-07-29T00:02:53;2.83;;;1.23;;
39018;SDS011;24786;51.984;5.872;2022-07-29T00:05:19;1.20;;;1.10;;
39018;SDS011;24786;51.984;5.872;2022-07-29T00:07:45;1.27;;;1.10;;
39018;SDS011;24786;51.984;5.872;2022-07-29T00:10:10;2.75;;;1.20;;
39018;SDS011;24786;51.984;5.872;2022-07-29T00:12:36;2.17;;;1.20;;
39018;SDS011;24786;51.984;5.872;2022-07-29T00:15:02;2.67;;;1.20;;
39018;SDS011;24786;51.984;5.872;2022-07-29T00:17:28;1.70;;;1.02;;
39018;SDS011;24786;51.984;5.872;2022-07-29T00:19:54;1.08;;;1.00;;
39018;SDS011;24786;51.984;5.872;2022-07-29T00:22:20;1.25;;;1.00;;
39018;SDS011;24786;51.984;5.872;2022-07-29T00:24:46;0.95;;;0.90;;
39018;SDS011;24786;51.984;5.872;2022-07-29T00:27:13;0.97;;;0.90;;
39018;SDS011;24786;51.984;5.872;2022-07-29T00:29:39;2.15;;;1.38;;
39018;SDS011;24786;51.984;5.872;2022-07-29T00:32:05;2.17;;;1.10;;
39018;SDS011;24786;51.984;5.872;2022-07-29T00:34:31;1.27;;;1.13;;
39018;SDS011;24786;51.984;5.872;2022-07-29T00:37:15;3.72;;;1.10;;
39018;SDS011;24786;51.984;5.872;2022-07-29T00:39:40;1.42;;;1.02;;
39018;SDS011;24786;51.984;5.872;2022-07-29T00:42:06;2.38;;;1.05;;
39018;SDS011;24786;51.984;5.872;2022-07-29T00:44:39;2.03;;;1.10;;
39018;SDS011;24786;51.984;5.872;2022-07-29T00:47:06;1.92;;;1.10;;
39018;SDS011;24786;51.984;5.872;2022-07-29T00:49:33;2.03;;;1.10;;
39018;SDS011;24786;51.984;5.872;2022-07-29T00:52:03;2.08;;;1.05;;
39018;SDS011;24786;51.984;5.872;2022-07-29T00:54:30;1.75;;;1.20;;
39018;SDS011;24786;51.984;5.872;2022-07-29T00:57:00;2.05;;;1.20;;
39018;SDS011;24786;51.984;5.872;2022-07-29T00:59:26;4.68;;;1.30;;
39018;SDS011;24786;51.984;5.872;2022-07-29T01:01:53;1.40;;;1.17;;
39018;SDS011;24786;51.984;5.872;2022-07-29T01:04:19;1.48;;;1.00;;
39018;SDS011;24786;51.984;5.872;2022-07-29T01:06:46;3.22;;;1.30;;
39018;SDS011;24786;51.984;5.872;2022-07-29T01:09:13;2.10;;;1.20;;
39018;SDS011;24786;51.984;5.872;2022-07-29T01:11:40;2.15;;;1.13;;
39018;SDS011;24786;51.984;5.872;2022-07-29T01:14:06;1.58;;;1.17;;
39018;SDS011;24786;51.984;5.872;2022-07-29T01:16:46;1.42;;;1.30;;
39018;SDS011;24786;51.984;5.872;2022-07-29T01:28:17;1.88;;;1.63;;
39018;SDS011;24786;51.984;5.872;2022-07-29T01:31:04;3.20;;;1.35;;
39018;SDS011;24786;51.984;5.872;2022-07-29T01:33:32;1.88;;;1.60;;
39018;SDS011;24786;51.984;5.872;2022-07-29T01:36:19;3.33;;;1.50;;
39018;SDS011;24786;51.984;5.872;2022-07-29T01:38:54;2.17;;;1.50;;
39018;SDS011;24786;51.984;5.872;2022-07-29T01:41:27;2.28;;;1.52;;
39018;SDS011;24786;51.984;5.872;2022-07-29T01:44:02;2.22;;;1.30;;
39018;SDS011;24786;51.984;5.872;2022-07-29T01:46:48;1.58;;;1.30;;
39018;SDS011;24786;51.984;5.872;2022-07-29T01:49:18;1.70;;;1.45;;
39018;SDS011;24786;51.984;5.872;2022-07-29T01:51:53;1.75;;;1.38;;
39018;SDS011;24786;51.984;5.872;2022-07-29T01:54:42;4.38;;;1.40;;
39018;SDS011;24786;51.984;5.872;2022-07-29T01:57:12;1.33;;;1.30;;
39018;SDS011;24786;51.984;5.872;2022-07-29T01:59:40;1.60;;;1.05;;
39018;SDS011;24786;51.984;5.872;2022-07-29T02:02:07;2.05;;;1.45;;
39018;SDS011;24786;51.984;5.872;2022-07-29T02:04:35;1.60;;;1.17;;
39018;SDS011;24786;51.984;5.872;2022-07-29T02:07:03;1.95;;;1.30;;
39018;SDS011;24786;51.984;5.872;2022-07-29T02:09:31;3.47;;;2.27;;
39018;SDS011;24786;51.984;5.872;2022-07-29T02:12:00;2.95;;;1.38;;
39018;SDS011;24786;51.984;5.872;2022-07-29T02:14:28;3.20;;;1.20;;
39018;SDS011;24786;51.984;5.872;2022-07-29T02:16:58;1.65;;;1.30;;
39018;SDS011;24786;51.984;5.872;2022-07-29T02:19:25;1.17;;;1.17;;
39018;SDS011;24786;51.984;5.872;2022-07-29T02:21:53;2.13;;;1.30;;
39018;SDS011;24786;51.984;5.872;2022-07-29T02:24:22;1.60;;;1.23;;
39018;SDS011;24786;51.984;5.872;2022-07-29T02:26:50;1.10;;;1.10;;
39018;SDS011;24786;51.984;5.872;2022-07-29T02:29:18;1.40;;;1.30;;
39018;SDS011;24786;51.984;5.872;2022-07-29T02:31:46;4.55;;;1.23;;
39018;SDS011;24786;51.984;5.872;2022-07-29T02:34:15;1.63;;;1.42;;
39018;SDS011;24786;51.984;5.872;2022-07-29T02:36:43;2.95;;;1.40;;
39018;SDS011;24786;51.984;5.872;2022-07-29T02:39:10;1.88;;;1.52;;
39018;SDS011;24786;51.984;5.872;2022-07-29T02:41:41;1.30;;;1.20;;
39018;SDS011;24786;51.984;5.872;2022-07-29T02:44:10;1.70;;;1.45;;
39018;SDS011;24786;51.984;5.872;2022-07-29T02:46:37;2.33;;;1.48;;
39018;SDS011;24786;51.984;5.872;2022-07-29T02:49:13;2.90;;;1.55;;
39018;SDS011;24786;51.984;5.872;2022-07-29T02:52:00;1.40;;;1.23;;
39018;SDS011;24786;51.984;5.872;2022-07-29T02:54:39;3.05;;;1.50;;
39018;SDS011;24786;51.984;5.872;2022-07-29T02:57:25;1.75;;;1.52;;
39018;SDS011;24786;51.984;5.872;2022-07-29T02:59:57;3.05;;;1.65;;
39018;SDS011;24786;51.984;5.872;2022-07-29T03:02:25;3.78;;;1.55;;
39018;SDS011;24786;51.984;5.872;2022-07-29T03:04:52;1.63;;;1.52;;
39018;SDS011;24786;51.984;5.872;2022-07-29T03:07:19;1.70;;;1.60;;
39018;SDS011;24786;51.984;5.872;2022-07-29T03:09:46;1.83;;;1.45;;
39018;SDS011;24786;51.984;5.872;2022-07-29T03:12:12;3.30;;;2.20;;
39018;SDS011;24786;51.984;5.872;2022-07-29T03:14:39;1.85;;;1.67;;
39018;SDS011;24786;51.984;5.872;2022-07-29T03:17:05;3.25;;;1.70;;
39018;SDS011;24786;51.984;5.872;2022-07-29T03:19:32;1.63;;;1.50;;
39018;SDS011;24786;51.984;5.872;2022-07-29T03:21:59;1.60;;;1.50;;
39018;SDS011;24786;51.984;5.872;2022-07-29T03:24:32;2.47;;;1.40;;
39018;SDS011;24786;51.984;5.872;2022-07-29T03:26:59;2.45;;;2.25;;
39018;SDS011;24786;51.984;5.872;2022-07-29T03:29:26;2.75;;;1.85;;
39018;SDS011;24786;51.984;5.872;2022-07-29T03:31:52;2.85;;;1.80;;
39018;SDS011;24786;51.984;5.872;2022-07-29T03:34:17;3.15;;;2.10;;
39018;SDS011;24786;51.984;5.872;2022-07-29T03:36:43;2.10;;;1.90;;
39018;SDS011;24786;51.984;5.872;2022-07-29T03:39:09;5.43;;;1.95;;
39018;SDS011;24786;51.984;5.872;2022-07-29T03:41:38;2.42;;;2.17;;
39018;SDS011;24786;51.984;5.872;2022-07-29T03:44:07;3.10;;;2.00;;
39018;SDS011;24786;51.984;5.872;2022-07-29T03:46:33;2.60;;;2.00;;
39018;SDS011;24786;51.984;5.872;2022-07-29T03:49:01;2.45;;;2.05;;
39018;SDS011;24786;51.984;5.872;2022-07-29T03:51:29;5.87;;;2.43;;
39018;SDS011;24786;51.984;5.872;2022-07-29T03:53:55;3.30;;;2.35;;
39018;SDS011;24786;51.984;5.872;2022-07-29T03:56:22;3.65;;;2.10;;
39018;SDS011;24786;51.984;5.872;2022-07-29T03:58:52;2.78;;;1.90;;
39018;SDS011;24786;51.984;5.872;2022-07-29T04:01:18;2.88;;;2.20;;
39018;SDS011;24786;51.984;5.872;2022-07-29T04:03:45;2.35;;;1.98;;
39018;SDS011;24786;51.984;5.872;2022-07-29T04:06:11;4.50;;;2.10;;
39018;SDS011;24786;51.984;5.872;2022-07-29T04:08:37;4.47;;;2.30;;
39018;SDS011;24786;51.984;5.872;2022-07-29T04:11:03;3.28;;;2.20;;
39018;SDS011;24786;51.984;5.872;2022-07-29T04:13:30;3.90;;;2.20;;
39018;SDS011;24786;51.984;5.872;2022-07-29T04:15:56;2.35;;;2.15;;
39018;SDS011;24786;51.984;5.872;2022-07-29T04:18:21;3.53;;;2.75;;
39018;SDS011;24786;51.984;5.872;2022-07-29T04:20:47;2.78;;;2.28;;
39018;SDS011;24786;51.984;5.872;2022-07-29T04:23:14;2.20;;;1.95;;
39018;SDS011;24786;51.984;5.872;2022-07-29T04:25:40;2.53;;;2.33;;
39018;SDS011;24786;51.984;5.872;2022-07-29T04:28:06;3.95;;;2.80;;
39018;SDS011;24786;51.984;5.872;2022-07-29T04:30:33;2.90;;;2.58;;
39018;SDS011;24786;51.984;5.872;2022-07-29T04:33:03;2.85;;;2.53;;
39018;SDS011;24786;51.984;5.872;2022-07-29T04:35:30;3.08;;;2.80;;
39018;SDS011;24786;51.984;5.872;2022-07-29T04:37:58;4.22;;;2.97;;
39018;SDS011;24786;51.984;5.872;2022-07-29T04:40:24;2.72;;;2.35;;
39018;SDS011;24786;51.984;5.872;2022-07-29T04:42:50;2.47;;;2.28;;
39018;SDS011;24786;51.984;5.872;2022-07-29T04:45:15;3.75;;;2.72;;
39018;SDS011;24786;51.984;5.872;2022-07-29T04:47:41;3.20;;;2.63;;
39018;SDS011;24786;51.984;5.872;2022-07-29T04:50:07;3.40;;;2.40;;
39018;SDS011;24786;51.984;5.872;2022-07-29T04:52:33;2.80;;;2.60;;
39018;SDS011;24786;51.984;5.872;2022-07-29T04:55:00;3.13;;;2.25;;
39018;SDS011;24786;51.984;5.872;2022-07-29T04:57:26;2.55;;;2.33;;
39018;SDS011;24786;51.984;5.872;2022-07-29T04:59:51;3.38;;;2.58;;
39018;SDS011;24786;51.984;5.872;2022-07-29T05:02:17;2.35;;;2.15;;
39018;SDS011;24786;51.984;5.872;2022-07-29T05:04:42;2.40;;;2.20;;
39018;SDS011;24786;51.984;5.872;2022-07-29T05:07:08;3.25;;;2.20;;
39018;SDS011;24786;51.984;5.872;2022-07-29T05:09:33;5.30;;;2.40;;
39018;SDS011;24786;51.984;5.872;2022-07-29T05:11:59;2.95;;;2.40;;
39018;SDS011;24786;51.984;5.872;2022-07-29T05:14:26;2.72;;;2.53;;
39018;SDS011;24786;51.984;5.872;2022-07-29T05:16:52;3.22;;;2.60;;
39018;SDS011;24786;51.984;5.872;2022-07-29T05:19:21;2.58;;;2.30;;
39018;SDS011;24786;51.984;5.872;2022-07-29T05:21:47;2.42;;;2.22;;
39018;SDS011;24786;51.984;5.872;2022-07-29T05:24:12;4.75;;;2.60;;
39018;SDS011;24786;51.984;5.872;2022-07-29T05:26:38;2.63;;;2.42;;
39018;SDS011;24786;51.984;5.872;2022-07-29T05:29:04;3.20;;;2.58;;
39018;SDS011;24786;51.984;5.872;2022-07-29T05:31:30;2.97;;;2.72;;
39018;SDS011;24786;51.984;5.872;2022-07-29T05:33:55;2.80;;;2.47;;
39018;SDS011;24786;51.984;5.872;2022-07-29T05:36:21;2.50;;;2.30;;
39018;SDS011;24786;51.984;5.872;2022-07-29T05:38:46;2.08;;;1.98;;
39018;SDS011;24786;51.984;5.872;2022-07-29T05:41:12;2.60;;;2.30;;
39018;SDS011;24786;51.984;5.872;2022-07-29T05:43:37;3.55;;;2.50;;
39018;SDS011;24786;51.984;5.872;2022-07-29T05:46:03;2.72;;;2.40;;
39018;SDS011;24786;51.984;5.872;2022-07-29T05:48:29;3.35;;;2.67;;
39018;SDS011;24786;51.984;5.872;2022-07-29T05:50:54;4.22;;;2.85;;
39018;SDS011;24786;51.984;5.872;2022-07-29T05:53:20;3.42;;;3.05;;
39018;SDS011;24786;51.984;5.872;2022-07-29T05:55:47;2.97;;;2.40;;
39018;SDS011;24786;51.984;5.872;2022-07-29T05:58:13;2.95;;;2.50;;
39018;SDS011;24786;51.984;5.872;2022-07-29T06:00:38;2.45;;;2.17;;
39018;SDS011;24786;51.984;5.872;2022-07-29T06:03:04;2.70;;;2.50;;
39018;SDS011;24786;51.984;5.872;2022-07-29T06:05:30;2.90;;;2.70;;
39018;SDS011;24786;51.984;5.872;2022-07-29T06:07:56;3.72;;;2.83;;
39018;SDS011;24786;51.984;5.872;2022-07-29T06:10:21;5.30;;;2.63;;
39018;SDS011;24786;51.984;5.872;2022-07-29T06:12:47;3.40;;;2.45;;
39018;SDS011;24786;51.984;5.872;2022-07-29T06:15:12;3.97;;;2.65;;
39018;SDS011;24786;51.984;5.872;2022-07-29T06:17:38;3.10;;;2.80;;
39018;SDS011;24786;51.984;5.872;2022-07-29T06:20:04;2.72;;;2.47;;
39018;SDS011;24786;51.984;5.872;2022-07-29T06:22:30;3.25;;;2.40;;
39018;SDS011;24786;51.984;5.872;2022-07-29T06:24:55;2.42;;;2.22;;
39018;SDS011;24786;51.984;5.872;2022-07-29T06:27:21;3.10;;;2.90;;
39018;SDS011;24786;51.984;5.872;2022-07-29T06:29:46;4.50;;;2.67;;
39018;SDS011;24786;51.984;5.872;2022-07-29T06:32:12;2.55;;;2.30;;
39018;SDS011;24786;51.984;5.872;2022-07-29T06:34:37;2.55;;;2.35;;
39018;SDS011;24786;51.984;5.872;2022-07-29T06:37:06;5.03;;;2.50;;
39018;SDS011;24786;51.984;5.872;2022-07-29T06:39:33;2.50;;;2.33;;
39018;SDS011;24786;51.984;5.872;2022-07-29T06:42:03;2.25;;;1.80;;
39018;SDS011;24786;51.984;5.872;2022-07-29T06:44:29;3.75;;;2.80;;
39018;SDS011;24786;51.984;5.872;2022-07-29T06:46:55;2.90;;;2.13;;
39018;SDS011;24786;51.984;5.872;2022-07-29T06:49:21;3.90;;;2.58;;
39018;SDS011;24786;51.984;5.872;2022-07-29T06:51:48;3.95;;;2.30;;
39018;SDS011;24786;51.984;5.872;2022-07-29T06:54:14;2.45;;;1.98;;
39018;SDS011;24786;51.984;5.872;2022-07-29T06:56:39;2.85;;;2.08;;
39018;SDS011;24786;51.984;5.872;2022-07-29T06:59:10;3.20;;;2.30;;
39018;SDS011;24786;51.984;5.872;2022-07-29T07:01:37;2.78;;;2.10;;
39018;SDS011;24786;51.984;5.872;2022-07-29T07:04:03;2.65;;;2.08;;
39018;SDS011;24786;51.984;5.872;2022-07-29T07:06:29;3.28;;;1.85;;
39018;SDS011;24786;51.984;5.872;2022-07-29T07:08:55;2.28;;;2.05;;
39018;SDS011;24786;51.984;5.872;2022-07-29T07:11:20;2.72;;;2.40;;
39018;SDS011;24786;51.984;5.872;2022-07-29T07:13:53;3.17;;;2.28;;
39018;SDS011;24786;51.984;5.872;2022-07-29T07:16:21;2.78;;;2.00;;
39018;SDS011;24786;51.984;5.872;2022-07-29T07:18:47;4.45;;;2.20;;
39018;SDS011;24786;51.984;5.872;2022-07-29T07:21:12;2.47;;;2.03;;
39018;SDS011;24786;51.984;5.872;2022-07-29T07:23:38;1.88;;;1.77;;
39018;SDS011;24786;51.984;5.872;2022-07-29T07:26:04;3.92;;;2.50;;
39018;SDS011;24786;51.984;5.872;2022-07-29T07:28:30;2.00;;;1.90;;
39018;SDS011;24786;51.984;5.872;2022-07-29T07:30:56;3.47;;;1.98;;
39018;SDS011;24786;51.984;5.872;2022-07-29T07:33:21;3.72;;;2.15;;
39018;SDS011;24786;51.984;5.872;2022-07-29T07:35:50;4.07;;;2.13;;
39018;SDS011;24786;51.984;5.872;2022-07-29T07:38:15;3.00;;;2.00;;
39018;SDS011;24786;51.984;5.872;2022-07-29T07:40:41;2.20;;;2.00;;
39018;SDS011;24786;51.984;5.872;2022-07-29T07:43:06;2.90;;;2.17;;
39018;SDS011;24786;51.984;5.872;2022-07-29T07:45:32;1.80;;;1.70;;
39018;SDS011;24786;51.984;5.872;2022-07-29T07:47:58;5.80;;;1.77;;
39018;SDS011;24786;51.984;5.872;2022-07-29T07:50:24;3.75;;;1.90;;
39018;SDS011;24786;51.984;5.872;2022-07-29T07:52:54;2.58;;;2.00;;
39018;SDS011;24786;51.984;5.872;2022-07-29T07:55:22;1.90;;;1.80;;
39018;SDS011;24786;51.984;5.872;2022-07-29T07:57:48;2.40;;;2.03;;
39018;SDS011;24786;51.984;5.872;2022-07-29T08:00:15;3.53;;;2.42;;
39018;SDS011;24786;51.984;5.872;2022-07-29T08:02:41;2.53;;;1.95;;
39018;SDS011;24786;51.984;5.872;2022-07-29T08:05:08;2.05;;;1.95;;
39018;SDS011;24786;51.984;5.872;2022-07-29T08:07:34;2.60;;;2.13;;
39018;SDS011;24786;51.984;5.872;2022-07-29T08:09:59;2.75;;;2.33;;
39018;SDS011;24786;51.984;5.872;2022-07-29T08:12:25;3.17;;;2.25;;
39018;SDS011;24786;51.984;5.872;2022-07-29T08:14:51;4.63;;;2.15;;
39018;SDS011;24786;51.984;5.872;2022-07-29T08:17:16;2.25;;;2.05;;
39018;SDS011;24786;51.984;5.872;2022-07-29T08:19:42;4.28;;;2.22;;
39018;SDS011;24786;51.984;5.872;2022-07-29T08:22:07;3.58;;;2.10;;
39018;SDS011;24786;51.984;5.872;2022-07-29T08:24:33;2.30;;;1.98;;
39018;SDS011;24786;51.984;5.872;2022-07-29T08:27:08;3.13;;;1.92;;
39018;SDS011;24786;51.984;5.872;2022-07-29T08:29:35;2.20;;;2.10;;
39018;SDS011;24786;51.984;5.872;2022-07-29T08:32:01;2.05;;;1.85;;
39018;SDS011;24786;51.984;5.872;2022-07-29T08:34:27;2.55;;;2.10;;
39018;SDS011;24786;51.984;5.872;2022-07-29T08:36:53;4.13;;;2.10;;
39018;SDS011;24786;51.984;5.872;2022-07-29T08:39:20;2.05;;;1.88;;
39018;SDS011;24786;51.984;5.872;2022-07-29T08:41:45;2.47;;;1.80;;
39018;SDS011;24786;51.984;5.872;2022-07-29T08:44:12;2.65;;;2.33;;
39018;SDS011;24786;51.984;5.872;2022-07-29T08:46:38;3.17;;;2.20;;
39018;SDS011;24786;51.984;5.872;2022-07-29T08:49:04;2.10;;;1.90;;
39018;SDS011;24786;51.984;5.872;2022-07-29T08:51:30;3.50;;;2.03;;
39018;SDS011;24786;51.984;5.872;2022-07-29T08:53:58;2.30;;;2.10;;
39018;SDS011;24786;51.984;5.872;2022-07-29T08:56:24;2.85;;;2.30;;
39018;SDS011;24786;51.984;5.872;2022-07-29T08:58:51;2.15;;;2.05;;
39018;SDS011;24786;51.984;5.872;2022-07-29T09:01:20;3.33;;;2.30;;
39018;SDS011;24786;51.984;5.872;2022-07-29T09:03:47;1.98;;;1.85;;
39018;SDS011;24786;51.984;5.872;2022-07-29T09:06:14;2.17;;;2.00;;
39018;SDS011;24786;51.984;5.872;2022-07-29T09:08:42;3.55;;;2.50;;
39018;SDS011;24786;51.984;5.872;2022-07-29T09:11:09;5.45;;;2.13;;
39018;SDS011;24786;51.984;5.872;2022-07-29T09:13:36;2.50;;;2.20;;
39018;SDS011;24786;51.984;5.872;2022-07-29T09:16:02;2.67;;;2.10;;
39018;SDS011;24786;51.984;5.872;2022-07-29T09:18:41;1.98;;;1.85;;
39018;SDS011;24786;51.984;5.872;2022-07-29T09:21:09;1.90;;;1.80;;
39018;SDS011;24786;51.984;5.872;2022-07-29T09:24:05;3.05;;;2.30;;
39018;SDS011;24786;51.984;5.872;2022-07-29T09:26:37;2.28;;;1.88;;
39018;SDS011;24786;51.984;5.872;2022-07-29T09:29:11;3.45;;;2.10;;
39018;SDS011;24786;51.984;5.872;2022-07-29T09:31:42;2.50;;;2.10;;
39018;SDS011;24786;51.984;5.872;2022-07-29T09:34:10;2.70;;;2.47;;
39018;SDS011;24786;51.984;5.872;2022-07-29T09:36:40;2.35;;;2.15;;
39018;SDS011;24786;51.984;5.872;2022-07-29T09:39:13;2.17;;;2.00;;
39018;SDS011;24786;51.984;5.872;2022-07-29T09:41:49;1.95;;;1.85;;
39018;SDS011;24786;51.984;5.872;2022-07-29T09:44:20;2.10;;;1.77;;
39018;SDS011;24786;51.984;5.872;2022-07-29T09:47:03;4.80;;;2.00;;
39018;SDS011;24786;51.984;5.872;2022-07-29T09:49:32;2.20;;;1.73;;
39018;SDS011;24786;51.984;5.872;2022-07-29T09:52:06;5.05;;;2.80;;
39018;SDS011;24786;51.984;5.872;2022-07-29T09:54:34;2.30;;;2.10;;
39018;SDS011;24786;51.984;5.872;2022-07-29T09:57:04;2.47;;;2.10;;
39018;SDS011;24786;51.984;5.872;2022-07-29T09:59:32;2.35;;;2.15;;
39018;SDS011;24786;51.984;5.872;2022-07-29T10:01:58;2.97;;;2.15;;
39018;SDS011;24786;51.984;5.872;2022-07-29T10:04:35;4.30;;;2.63;;
39018;SDS011;24786;51.984;5.872;2022-07-29T10:07:08;1.88;;;1.77;;
39018;SDS011;24786;51.984;5.872;2022-07-29T10:09:34;2.58;;;2.38;;
39018;SDS011;24786;51.984;5.872;2022-07-29T10:12:07;4.38;;;2.30;;
39018;SDS011;24786;51.984;5.872;2022-07-29T10:14:36;2.20;;;2.00;;
39018;SDS011;24786;51.984;5.872;2022-07-29T10:17:03;2.65;;;2.05;;
39018;SDS011;24786;51.984;5.872;2022-07-29T10:19:30;2.58;;;2.38;;
39018;SDS011;24786;51.984;5.872;2022-07-29T10:21:57;2.95;;;2.38;;
39018;SDS011;24786;51.984;5.872;2022-07-29T10:24:27;2.30;;;2.08;;
39018;SDS011;24786;51.984;5.872;2022-07-29T10:26:54;3.10;;;2.30;;
39018;SDS011;24786;51.984;5.872;2022-07-29T10:29:21;2.13;;;1.92;;
39018;SDS011;24786;51.984;5.872;2022-07-29T10:31:57;4.38;;;2.20;;
39018;SDS011;24786;51.984;5.872;2022-07-29T10:34:48;2.40;;;2.17;;
39018;SDS011;24786;51.984;5.872;2022-07-29T10:40:26;2.70;;;1.85;;
39018;SDS011;24786;51.984;5.872;2022-07-29T10:43:32;4.03;;;2.58;;
39018;SDS011;24786;51.984;5.872;2022-07-29T10:46:01;2.03;;;1.83;;
39018;SDS011;24786;51.984;5.872;2022-07-29T10:48:29;2.13;;;1.88;;
39018;SDS011;24786;51.984;5.872;2022-07-29T10:50:56;2.90;;;2.22;;
39018;SDS011;24786;51.984;5.872;2022-07-29T10:59:41;2.85;;;2.00;;
39018;SDS011;24786;51.984;5.872;2022-07-29T11:02:02;3.20;;;2.10;;
39018;SDS011;24786;51.984;5.872;2022-07-29T11:05:08;2.25;;;2.05;;
39018;SDS011;24786;51.984;5.872;2022-07-29T11:07:36;1.80;;;1.70;;
39018;SDS011;24786;51.984;5.872;2022-07-29T11:15:12;2.08;;;1.85;;
39018;SDS011;24786;51.984;5.872;2022-07-29T11:23:00;1.83;;;1.50;;
39018;SDS011;24786;51.984;5.872;2022-07-29T11:25:26;1.60;;;1.50;;
39018;SDS011;24786;51.984;5.872;2022-07-29T11:27:52;2.13;;;1.83;;
39018;SDS011;24786;51.984;5.872;2022-07-29T11:30:49;1.60;;;1.50;;
39018;SDS011;24786;51.984;5.872;2022-07-29T11:33:29;2.65;;;1.85;;
39018;SDS011;24786;51.984;5.872;2022-07-29T11:36:06;2.90;;;1.80;;
39018;SDS011;24786;51.984;5.872;2022-07-29T11:38:41;2.60;;;1.55;;
39018;SDS011;24786;51.984;5.872;2022-07-29T11:43:54;2.22;;;1.42;;
39018;SDS011;24786;51.984;5.872;2022-07-29T11:49:26;2.35;;;1.98;;
39018;SDS011;24786;51.984;5.872;2022-07-29T11:51:52;3.90;;;2.53;;
39018;SDS011;24786;51.984;5.872;2022-07-29T11:54:26;7.18;;;3.53;;
39018;SDS011;24786;51.984;5.872;2022-07-29T11:56:56;2.85;;;2.47;;
39018;SDS011;24786;51.984;5.872;2022-07-29T11:59:23;2.63;;;1.90;;
39018;SDS011;24786;51.984;5.872;2022-07-29T12:01:53;2.50;;;2.13;;
39018;SDS011;24786;51.984;5.872;2022-07-29T12:04:21;2.92;;;1.95;;
39018;SDS011;24786;51.984;5.872;2022-07-29T12:06:51;4.53;;;1.98;;
39018;SDS011;24786;51.984;5.872;2022-07-29T12:09:18;1.70;;;1.60;;
39018;SDS011;24786;51.984;5.872;2022-07-29T12:11:45;2.67;;;1.83;;
39018;SDS011;24786;51.984;5.872;2022-07-29T12:14:27;2.75;;;1.70;;
39018;SDS011;24786;51.984;5.872;2022-07-29T12:16:57;1.60;;;1.50;;
39018;SDS011;24786;51.984;5.872;2022-07-29T12:19:24;1.98;;;1.50;;
39018;SDS011;24786;51.984;5.872;2022-07-29T12:21:51;1.70;;;1.60;;
39018;SDS011;24786;51.984;5.872;2022-07-29T12:24:18;3.20;;;1.95;;
39018;SDS011;24786;51.984;5.872;2022-07-29T12:29:19;1.95;;;1.75;;
39018;SDS011;24786;51.984;5.872;2022-07-29T12:31:51;3.20;;;1.70;;
39018;SDS011;24786;51.984;5.872;2022-07-29T12:34:23;2.40;;;2.00;;
39018;SDS011;24786;51.984;5.872;2022-07-29T12:36:52;2.72;;;1.70;;
39018;SDS011;24786;51.984;5.872;2022-07-29T12:41:47;2.63;;;2.05;;
39018;SDS011;24786;51.984;5.872;2022-07-29T12:44:13;1.73;;;1.60;;
39018;SDS011;24786;51.984;5.872;2022-07-29T12:46:39;2.42;;;1.45;;
39018;SDS011;24786;51.984;5.872;2022-07-29T12:49:04;3.75;;;1.80;;
39018;SDS011;24786;51.984;5.872;2022-07-29T12:51:31;1.95;;;1.65;;
39018;SDS011;24786;51.984;5.872;2022-07-29T12:54:09;2.97;;;2.17;;
39018;SDS011;24786;51.984;5.872;2022-07-29T12:56:39;1.73;;;1.63;;
39018;SDS011;24786;51.984;5.872;2022-07-29T12:59:13;1.77;;;1.60;;
39018;SDS011;24786;51.984;5.872;2022-07-29T13:01:43;2.38;;;1.65;;
39018;SDS011;24786;51.984;5.872;2022-07-29T13:04:11;2.92;;;1.80;;
39018;SDS011;24786;51.984;5.872;2022-07-29T13:06:57;3.13;;;2.30;;
39018;SDS011;24786;51.984;5.872;2022-07-29T13:12:07;2.10;;;1.77;;
39018;SDS011;24786;51.984;5.872;2022-07-29T13:17:10;2.08;;;1.42;;
39018;SDS011;24786;51.984;5.872;2022-07-29T13:22:39;3.15;;;1.65;;
39018;SDS011;24786;51.984;5.872;2022-07-29T13:25:10;1.85;;;1.50;;
39018;SDS011;24786;51.984;5.872;2022-07-29T13:27:36;3.28;;;1.60;;
39018;SDS011;24786;51.984;5.872;2022-07-29T13:30:04;2.95;;;1.58;;
39018;SDS011;24786;51.984;5.872;2022-07-29T13:32:32;2.13;;;1.92;;
39018;SDS011;24786;51.984;5.872;2022-07-29T13:37:28;4.07;;;1.88;;
39018;SDS011;24786;51.984;5.872;2022-07-29T13:39:54;1.92;;;1.67;;
39018;SDS011;24786;51.984;5.872;2022-07-29T13:42:21;1.60;;;1.50;;
39018;SDS011;24786;51.984;5.872;2022-07-29T13:44:47;1.73;;;1.40;;
39018;SDS011;24786;51.984;5.872;2022-07-29T13:47:16;1.95;;;1.67;;
39018;SDS011;24786;51.984;5.872;2022-07-29T13:49:43;2.00;;;1.80;;
39018;SDS011;24786;51.984;5.872;2022-07-29T13:52:08;2.95;;;2.45;;
39018;SDS011;24786;51.984;5.872;2022-07-29T13:54:34;2.45;;;1.92;;
39018;SDS011;24786;51.984;5.872;2022-07-29T13:57:06;2.15;;;1.60;;
39018;SDS011;24786;51.984;5.872;2022-07-29T13:59:32;1.90;;;1.80;;
39018;SDS011;24786;51.984;5.872;2022-07-29T14:01:58;2.40;;;1.80;;
39018;SDS011;24786;51.984;5.872;2022-07-29T14:04:23;2.38;;;1.55;;
39018;SDS011;24786;51.984;5.872;2022-07-29T14:06:49;2.30;;;1.60;;
39018;SDS011;24786;51.984;5.872;2022-07-29T14:09:15;1.75;;;1.52;;
39018;SDS011;24786;51.984;5.872;2022-07-29T14:11:41;1.70;;;1.55;;
39018;SDS011;24786;51.984;5.872;2022-07-29T14:14:06;2.92;;;1.65;;
39018;SDS011;24786;51.984;5.872;2022-07-29T14:16:32;1.70;;;1.60;;
39018;SDS011;24786;51.984;5.872;2022-07-29T14:18:59;4.72;;;2.00;;
39018;SDS011;24786;51.984;5.872;2022-07-29T14:21:24;3.15;;;1.80;;
39018;SDS011;24786;51.984;5.872;2022-07-29T14:23:50;5.18;;;1.50;;
39018;SDS011;24786;51.984;5.872;2022-07-29T14:26:17;3.15;;;1.50;;
39018;SDS011;24786;51.984;5.872;2022-07-29T14:28:43;2.10;;;1.50;;
39018;SDS011;24786;51.984;5.872;2022-07-29T14:31:09;1.83;;;1.50;;
39018;SDS011;24786;51.984;5.872;2022-07-29T14:33:35;2.47;;;1.80;;
39018;SDS011;24786;51.984;5.872;2022-07-29T14:36:00;1.98;;;1.73;;
39018;SDS011;24786;51.984;5.872;2022-07-29T14:38:26;1.88;;;1.70;;
39018;SDS011;24786;51.984;5.872;2022-07-29T14:40:51;5.35;;;2.00;;
39018;SDS011;24786;51.984;5.872;2022-07-29T14:43:17;1.98;;;1.67;;
39018;SDS011;24786;51.984;5.872;2022-07-29T14:45:43;1.83;;;1.40;;
39018;SDS011;24786;51.984;5.872;2022-07-29T14:48:08;4.05;;;1.60;;
39018;SDS011;24786;51.984;5.872;2022-07-29T14:50:36;2.05;;;1.58;;
39018;SDS011;24786;51.984;5.872;2022-07-29T14:53:02;1.75;;;1.65;;
39018;SDS011;24786;51.984;5.872;2022-07-29T14:55:28;2.13;;;1.50;;
39018;SDS011;24786;51.984;5.872;2022-07-29T14:57:53;2.30;;;1.63;;
39018;SDS011;24786;51.984;5.872;2022-07-29T15:00:20;4.32;;;2.10;;
39018;SDS011;24786;51.984;5.872;2022-07-29T15:02:46;1.20;;;1.20;;
39018;SDS011;24786;51.984;5.872;2022-07-29T15:05:12;2.55;;;1.80;;
39018;SDS011;24786;51.984;5.872;2022-07-29T15:07:37;1.80;;;1.70;;
39018;SDS011;24786;51.984;5.872;2022-07-29T15:10:03;2.17;;;1.48;;
39018;SDS011;24786;51.984;5.872;2022-07-29T15:12:29;1.55;;;1.45;;
39018;SDS011;24786;51.984;5.872;2022-07-29T15:14:55;1.42;;;1.33;;
39018;SDS011;24786;51.984;5.872;2022-07-29T15:17:21;2.28;;;1.70;;
39018;SDS011;24786;51.984;5.872;2022-07-29T15:19:46;1.45;;;1.20;;
39018;SDS011;24786;51.984;5.872;2022-07-29T15:22:12;1.90;;;1.58;;
39018;SDS011;24786;51.984;5.872;2022-07-29T15:24:38;1.50;;;1.40;;
39018;SDS011;24786;51.984;5.872;2022-07-29T15:27:03;1.98;;;1.60;;
39018;SDS011;24786;51.984;5.872;2022-07-29T15:29:29;2.72;;;1.60;;
39018;SDS011;24786;51.984;5.872;2022-07-29T15:31:55;1.83;;;1.70;;
39018;SDS011;24786;51.984;5.872;2022-07-29T15:34:20;1.75;;;1.55;;
39018;SDS011;24786;51.984;5.872;2022-07-29T15:36:48;1.77;;;1.50;;
39018;SDS011;24786;51.984;5.872;2022-07-29T15:39:15;2.22;;;1.40;;
39018;SDS011;24786;51.984;5.872;2022-07-29T15:41:40;1.55;;;1.45;;
39018;SDS011;24786;51.984;5.872;2022-07-29T15:44:06;4.45;;;1.50;;